sensor_id;sensor_type;location;lat;lon;timestamp;P1;durP1;ratioP1;P2;durP2;ratioP2
71383;SDS011;61466;52.166;5.004;2023-01-16T00:02:02;3.08;;;2.17;;
71383;SDS011;61466;52.166;5.004;2023-01-16T00:04:27;3.50;;;2.10;;
71383;SDS011;61466;52.166;5.004;2023-01-16T00:06:53;2.97;;;1.95;;
71383;SDS011;61466;52.166;5.004;2023-01-16T00:09:19;2.25;;;1.83;;
71383;SDS011;61466;52.166;5.004;2023-01-16T00:11:44;3.35;;;2.00;;
71383;SDS011;61466;52.166;5.004;2023-01-16T00:14:10;3.13;;;2.50;;
71383;SDS011;61466;52.166;5.004;2023-01-16T00:16:35;2.47;;;2.17;;
71383;SDS011;61466;52.166;5.004;2023-01-16T00:19:01;3.03;;;2.33;;
71383;SDS011;61466;52.166;5.004;2023-01-16T00:21:27;3.10;;;2.10;;
71383;SDS011;61466;52.166;5.004;2023-01-16T00:23:53;4.15;;;2.97;;
71383;SDS011;61466;52.166;5.004;2023-01-16T00:26:19;2.88;;;2.38;;
71383;SDS011;61466;52.166;5.004;2023-01-16T00:28:45;3.20;;;2.47;;
71383;SDS011;61466;52.166;5.004;2023-01-16T00:31:10;4.65;;;2.60;;
71383;SDS011;61466;52.166;5.004;2023-01-16T00:33:36;5.18;;;2.72;;
71383;SDS011;61466;52.166;5.004;2023-01-16T00:36:02;6.70;;;3.08;;
71383;SDS011;61466;52.166;5.004;2023-01-16T00:38:27;5.38;;;2.78;;
71383;SDS011;61466;52.166;5.004;2023-01-16T00:40:53;4.50;;;2.75;;
71383;SDS011;61466;52.166;5.004;2023-01-16T00:43:18;4.65;;;2.83;;
71383;SDS011;61466;52.166;5.004;2023-01-16T00:45:44;4.70;;;3.42;;
71383;SDS011;61466;52.166;5.004;2023-01-16T00:48:09;5.80;;;2.53;;
71383;SDS011;61466;52.166;5.004;2023-01-16T00:50:35;4.25;;;2.83;;
71383;SDS011;61466;52.166;5.004;2023-01-16T00:53:00;8.52;;;3.22;;
71383;SDS011;61466;52.166;5.004;2023-01-16T00:55:26;4.80;;;2.85;;
71383;SDS011;61466;52.166;5.004;2023-01-16T00:57:51;6.07;;;3.58;;
71383;SDS011;61466;52.166;5.004;2023-01-16T01:00:17;9.25;;;4.13;;
71383;SDS011;61466;52.166;5.004;2023-01-16T01:02:46;6.65;;;3.63;;
71383;SDS011;61466;52.166;5.004;2023-01-16T01:05:14;5.72;;;3.70;;
71383;SDS011;61466;52.166;5.004;2023-01-16T01:07:39;7.18;;;4.65;;
71383;SDS011;61466;52.166;5.004;2023-01-16T01:10:05;5.80;;;3.65;;
71383;SDS011;61466;52.166;5.004;2023-01-16T01:12:30;9.25;;;3.88;;
71383;SDS011;61466;52.166;5.004;2023-01-16T01:14:56;4.95;;;3.28;;
71383;SDS011;61466;52.166;5.004;2023-01-16T01:17:21;5.05;;;4.20;;
71383;SDS011;61466;52.166;5.004;2023-01-16T01:19:46;6.63;;;5.15;;
71383;SDS011;61466;52.166;5.004;2023-01-16T01:22:12;8.90;;;4.97;;
71383;SDS011;61466;52.166;5.004;2023-01-16T01:24:37;3.95;;;2.58;;
71383;SDS011;61466;52.166;5.004;2023-01-16T01:27:02;6.68;;;3.28;;
71383;SDS011;61466;52.166;5.004;2023-01-16T01:29:28;4.68;;;3.03;;
71383;SDS011;61466;52.166;5.004;2023-01-16T01:31:53;5.13;;;3.70;;
71383;SDS011;61466;52.166;5.004;2023-01-16T01:34:19;5.68;;;3.30;;
71383;SDS011;61466;52.166;5.004;2023-01-16T01:36:44;6.13;;;3.10;;
71383;SDS011;61466;52.166;5.004;2023-01-16T01:39:09;4.03;;;2.60;;
71383;SDS011;61466;52.166;5.004;2023-01-16T01:41:35;8.18;;;4.47;;
71383;SDS011;61466;52.166;5.004;2023-01-16T01:44:00;8.40;;;3.00;;
71383;SDS011;61466;52.166;5.004;2023-01-16T01:46:27;5.72;;;3.40;;
71383;SDS011;61466;52.166;5.004;2023-01-16T01:49:00;6.38;;;3.25;;
71383;SDS011;61466;52.166;5.004;2023-01-16T01:51:33;5.55;;;3.63;;
71383;SDS011;61466;52.166;5.004;2023-01-16T01:54:03;5.35;;;3.20;;
71383;SDS011;61466;52.166;5.004;2023-01-16T01:56:34;7.53;;;2.78;;
71383;SDS011;61466;52.166;5.004;2023-01-16T01:59:07;4.60;;;3.42;;
71383;SDS011;61466;52.166;5.004;2023-01-16T02:01:36;8.07;;;3.05;;
71383;SDS011;61466;52.166;5.004;2023-01-16T02:04:04;5.32;;;3.65;;
71383;SDS011;61466;52.166;5.004;2023-01-16T02:06:40;6.43;;;3.38;;
71383;SDS011;61466;52.166;5.004;2023-01-16T02:09:09;3.70;;;2.08;;
71383;SDS011;61466;52.166;5.004;2023-01-16T02:11:40;4.70;;;3.30;;
71383;SDS011;61466;52.166;5.004;2023-01-16T02:14:11;4.30;;;2.60;;
71383;SDS011;61466;52.166;5.004;2023-01-16T02:16:40;4.72;;;3.20;;
71383;SDS011;61466;52.166;5.004;2023-01-16T02:19:32;5.40;;;2.67;;
71383;SDS011;61466;52.166;5.004;2023-01-16T02:27:47;5.53;;;2.90;;
71383;SDS011;61466;52.166;5.004;2023-01-16T02:35:46;6.78;;;3.40;;
71383;SDS011;61466;52.166;5.004;2023-01-16T02:41:14;3.55;;;2.85;;
71383;SDS011;61466;52.166;5.004;2023-01-16T02:44:07;3.20;;;2.67;;
71383;SDS011;61466;52.166;5.004;2023-01-16T02:46:35;5.32;;;3.03;;
71383;SDS011;61466;52.166;5.004;2023-01-16T02:49:19;7.38;;;3.00;;
71383;SDS011;61466;52.166;5.004;2023-01-16T02:54:41;5.03;;;2.22;;
71383;SDS011;61466;52.166;5.004;2023-01-16T02:57:17;5.10;;;2.35;;
71383;SDS011;61466;52.166;5.004;2023-01-16T02:59:44;2.85;;;2.45;;
71383;SDS011;61466;52.166;5.004;2023-01-16T03:02:10;4.43;;;2.33;;
71383;SDS011;61466;52.166;5.004;2023-01-16T03:07:03;3.55;;;2.13;;
71383;SDS011;61466;52.166;5.004;2023-01-16T03:09:33;2.92;;;1.58;;
71383;SDS011;61466;52.166;5.004;2023-01-16T03:17:39;2.58;;;1.90;;
71383;SDS011;61466;52.166;5.004;2023-01-16T03:22:50;1.88;;;1.67;;
71383;SDS011;61466;52.166;5.004;2023-01-16T03:25:43;2.15;;;1.40;;
71383;SDS011;61466;52.166;5.004;2023-01-16T03:33:43;2.70;;;1.70;;
71383;SDS011;61466;52.166;5.004;2023-01-16T03:36:37;3.67;;;1.50;;
71383;SDS011;61466;52.166;5.004;2023-01-16T03:39:11;2.97;;;1.58;;
71383;SDS011;61466;52.166;5.004;2023-01-16T03:41:39;1.50;;;0.93;;
71383;SDS011;61466;52.166;5.004;2023-01-16T03:44:09;4.35;;;1.73;;
71383;SDS011;61466;52.166;5.004;2023-01-16T03:46:41;1.27;;;1.17;;
71383;SDS011;61466;52.166;5.004;2023-01-16T03:49:13;1.70;;;1.20;;
71383;SDS011;61466;52.166;5.004;2023-01-16T03:51:47;2.40;;;1.65;;
71383;SDS011;61466;52.166;5.004;2023-01-16T03:54:52;2.00;;;1.08;;
71383;SDS011;61466;52.166;5.004;2023-01-16T03:59:43;4.70;;;1.30;;
71383;SDS011;61466;52.166;5.004;2023-01-16T04:04:43;1.75;;;1.10;;
71383;SDS011;61466;52.166;5.004;2023-01-16T04:07:20;1.88;;;1.50;;
71383;SDS011;61466;52.166;5.004;2023-01-16T04:09:54;2.85;;;1.42;;
71383;SDS011;61466;52.166;5.004;2023-01-16T04:12:23;2.53;;;1.10;;
71383;SDS011;61466;52.166;5.004;2023-01-16T04:14:58;2.47;;;1.58;;
71383;SDS011;61466;52.166;5.004;2023-01-16T04:17:27;2.70;;;1.58;;
71383;SDS011;61466;52.166;5.004;2023-01-16T04:19:54;1.90;;;1.80;;
71383;SDS011;61466;52.166;5.004;2023-01-16T04:22:23;2.40;;;1.60;;
71383;SDS011;61466;52.166;5.004;2023-01-16T04:24:51;3.50;;;1.20;;
71383;SDS011;61466;52.166;5.004;2023-01-16T04:27:17;3.05;;;1.30;;
71383;SDS011;61466;52.166;5.004;2023-01-16T04:29:44;1.67;;;1.58;;
71383;SDS011;61466;52.166;5.004;2023-01-16T04:32:09;2.67;;;1.33;;
71383;SDS011;61466;52.166;5.004;2023-01-16T04:34:34;2.45;;;1.60;;
71383;SDS011;61466;52.166;5.004;2023-01-16T04:37:00;2.92;;;1.63;;
71383;SDS011;61466;52.166;5.004;2023-01-16T04:39:25;1.65;;;1.55;;
71383;SDS011;61466;52.166;5.004;2023-01-16T04:41:50;2.55;;;1.55;;
71383;SDS011;61466;52.166;5.004;2023-01-16T04:44:16;3.35;;;1.70;;
71383;SDS011;61466;52.166;5.004;2023-01-16T04:46:42;1.92;;;1.70;;
71383;SDS011;61466;52.166;5.004;2023-01-16T04:49:08;1.60;;;1.35;;
71383;SDS011;61466;52.166;5.004;2023-01-16T04:51:34;1.00;;;0.93;;
71383;SDS011;61466;52.166;5.004;2023-01-16T04:54:01;1.90;;;1.23;;
71383;SDS011;61466;52.166;5.004;2023-01-16T04:56:28;1.95;;;1.05;;
71383;SDS011;61466;52.166;5.004;2023-01-16T04:58:54;1.25;;;1.15;;
71383;SDS011;61466;52.166;5.004;2023-01-16T05:01:19;2.40;;;1.30;;
71383;SDS011;61466;52.166;5.004;2023-01-16T05:03:45;3.80;;;1.08;;
71383;SDS011;61466;52.166;5.004;2023-01-16T05:06:10;1.23;;;1.10;;
71383;SDS011;61466;52.166;5.004;2023-01-16T05:08:36;1.55;;;0.95;;
71383;SDS011;61466;52.166;5.004;2023-01-16T05:11:01;2.17;;;1.33;;
71383;SDS011;61466;52.166;5.004;2023-01-16T05:13:27;2.78;;;1.60;;
71383;SDS011;61466;52.166;5.004;2023-01-16T05:15:53;3.47;;;1.33;;
71383;SDS011;61466;52.166;5.004;2023-01-16T05:18:18;4.28;;;1.33;;
71383;SDS011;61466;52.166;5.004;2023-01-16T05:20:44;2.28;;;0.98;;
71383;SDS011;61466;52.166;5.004;2023-01-16T05:23:09;1.98;;;1.35;;
71383;SDS011;61466;52.166;5.004;2023-01-16T05:25:35;0.73;;;0.73;;
71383;SDS011;61466;52.166;5.004;2023-01-16T05:28:01;2.17;;;1.08;;
71383;SDS011;61466;52.166;5.004;2023-01-16T05:30:27;4.20;;;1.27;;
71383;SDS011;61466;52.166;5.004;2023-01-16T05:32:53;3.03;;;1.45;;
71383;SDS011;61466;52.166;5.004;2023-01-16T05:35:18;2.25;;;2.00;;
71383;SDS011;61466;52.166;5.004;2023-01-16T05:37:45;6.72;;;1.85;;
71383;SDS011;61466;52.166;5.004;2023-01-16T05:40:10;1.30;;;1.08;;
71383;SDS011;61466;52.166;5.004;2023-01-16T05:42:36;1.95;;;1.30;;
71383;SDS011;61466;52.166;5.004;2023-01-16T05:45:02;3.53;;;1.02;;
71383;SDS011;61466;52.166;5.004;2023-01-16T05:47:28;2.17;;;1.58;;
71383;SDS011;61466;52.166;5.004;2023-01-16T05:49:53;0.98;;;0.95;;
71383;SDS011;61466;52.166;5.004;2023-01-16T05:52:18;2.40;;;1.10;;
71383;SDS011;61466;52.166;5.004;2023-01-16T05:54:44;2.22;;;2.08;;
71383;SDS011;61466;52.166;5.004;2023-01-16T05:57:09;2.90;;;1.27;;
71383;SDS011;61466;52.166;5.004;2023-01-16T05:59:35;2.47;;;1.23;;
71383;SDS011;61466;52.166;5.004;2023-01-16T06:02:00;2.25;;;1.50;;
71383;SDS011;61466;52.166;5.004;2023-01-16T06:04:26;1.10;;;0.98;;
71383;SDS011;61466;52.166;5.004;2023-01-16T06:06:51;2.90;;;1.10;;
71383;SDS011;61466;52.166;5.004;2023-01-16T06:09:16;1.80;;;1.23;;
71383;SDS011;61466;52.166;5.004;2023-01-16T06:11:42;1.75;;;0.93;;
71383;SDS011;61466;52.166;5.004;2023-01-16T06:14:07;1.60;;;1.50;;
71383;SDS011;61466;52.166;5.004;2023-01-16T06:16:33;2.10;;;1.27;;
71383;SDS011;61466;52.166;5.004;2023-01-16T06:19:00;1.77;;;1.40;;
71383;SDS011;61466;52.166;5.004;2023-01-16T06:21:25;3.00;;;1.55;;
71383;SDS011;61466;52.166;5.004;2023-01-16T06:23:51;2.25;;;1.00;;
71383;SDS011;61466;52.166;5.004;2023-01-16T06:26:16;5.63;;;1.70;;
71383;SDS011;61466;52.166;5.004;2023-01-16T06:28:42;5.50;;;2.28;;
71383;SDS011;61466;52.166;5.004;2023-01-16T06:31:07;1.60;;;1.30;;
71383;SDS011;61466;52.166;5.004;2023-01-16T06:33:33;1.52;;;1.33;;
71383;SDS011;61466;52.166;5.004;2023-01-16T06:35:59;3.25;;;1.27;;
71383;SDS011;61466;52.166;5.004;2023-01-16T06:38:25;1.60;;;1.48;;
71383;SDS011;61466;52.166;5.004;2023-01-16T06:40:50;3.33;;;1.45;;
71383;SDS011;61466;52.166;5.004;2023-01-16T06:43:21;5.47;;;1.48;;
71383;SDS011;61466;52.166;5.004;2023-01-16T06:45:50;4.72;;;1.50;;
71383;SDS011;61466;52.166;5.004;2023-01-16T06:48:15;1.60;;;1.40;;
71383;SDS011;61466;52.166;5.004;2023-01-16T06:50:40;2.08;;;1.20;;
71383;SDS011;61466;52.166;5.004;2023-01-16T06:53:06;5.00;;;1.60;;
71383;SDS011;61466;52.166;5.004;2023-01-16T06:55:31;4.05;;;1.30;;
71383;SDS011;61466;52.166;5.004;2023-01-16T06:57:57;2.20;;;1.42;;
71383;SDS011;61466;52.166;5.004;2023-01-16T07:00:22;6.68;;;1.58;;
71383;SDS011;61466;52.166;5.004;2023-01-16T07:02:51;2.42;;;1.73;;
71383;SDS011;61466;52.166;5.004;2023-01-16T07:05:19;1.92;;;1.13;;
71383;SDS011;61466;52.166;5.004;2023-01-16T07:07:45;1.30;;;1.20;;
71383;SDS011;61466;52.166;5.004;2023-01-16T07:10:11;2.30;;;1.35;;
71383;SDS011;61466;52.166;5.004;2023-01-16T07:12:36;3.88;;;1.25;;
71383;SDS011;61466;52.166;5.004;2023-01-16T07:15:01;3.25;;;1.33;;
71383;SDS011;61466;52.166;5.004;2023-01-16T07:17:45;1.88;;;1.00;;
71383;SDS011;61466;52.166;5.004;2023-01-16T07:20:29;1.50;;;1.40;;
71383;SDS011;61466;52.166;5.004;2023-01-16T07:23:14;3.42;;;1.50;;
71383;SDS011;61466;52.166;5.004;2023-01-16T07:25:46;0.95;;;0.82;;
71383;SDS011;61466;52.166;5.004;2023-01-16T07:28:13;3.63;;;1.40;;
71383;SDS011;61466;52.166;5.004;2023-01-16T07:30:39;2.17;;;1.35;;
71383;SDS011;61466;52.166;5.004;2023-01-16T07:33:04;1.60;;;1.50;;
71383;SDS011;61466;52.166;5.004;2023-01-16T07:35:30;3.25;;;1.23;;
71383;SDS011;61466;52.166;5.004;2023-01-16T07:37:55;2.17;;;1.85;;
71383;SDS011;61466;52.166;5.004;2023-01-16T07:40:22;2.22;;;1.23;;
71383;SDS011;61466;52.166;5.004;2023-01-16T07:42:51;1.75;;;1.65;;
71383;SDS011;61466;52.166;5.004;2023-01-16T07:45:16;0.80;;;0.70;;
71383;SDS011;61466;52.166;5.004;2023-01-16T07:47:42;2.72;;;1.05;;
71383;SDS011;61466;52.166;5.004;2023-01-16T07:50:07;1.85;;;1.02;;
71383;SDS011;61466;52.166;5.004;2023-01-16T07:52:33;0.82;;;0.82;;
71383;SDS011;61466;52.166;5.004;2023-01-16T07:54:58;0.68;;;0.68;;
71383;SDS011;61466;52.166;5.004;2023-01-16T07:57:24;0.73;;;0.73;;
71383;SDS011;61466;52.166;5.004;2023-01-16T07:59:52;1.08;;;0.98;;
71383;SDS011;61466;52.166;5.004;2023-01-16T08:02:18;2.45;;;1.50;;
71383;SDS011;61466;52.166;5.004;2023-01-16T08:04:44;5.13;;;1.00;;
71383;SDS011;61466;52.166;5.004;2023-01-16T08:07:09;0.95;;;0.93;;
71383;SDS011;61466;52.166;5.004;2023-01-16T08:09:35;2.15;;;1.42;;
71383;SDS011;61466;52.166;5.004;2023-01-16T08:12:00;1.42;;;0.98;;
71383;SDS011;61466;52.166;5.004;2023-01-16T08:14:25;2.33;;;1.48;;
71383;SDS011;61466;52.166;5.004;2023-01-16T08:16:51;1.15;;;1.05;;
71383;SDS011;61466;52.166;5.004;2023-01-16T08:19:16;2.88;;;1.58;;
71383;SDS011;61466;52.166;5.004;2023-01-16T08:21:41;1.30;;;0.90;;
71383;SDS011;61466;52.166;5.004;2023-01-16T08:24:07;1.55;;;1.08;;
71383;SDS011;61466;52.166;5.004;2023-01-16T08:26:34;1.48;;;1.33;;
71383;SDS011;61466;52.166;5.004;2023-01-16T08:28:59;0.93;;;0.93;;
71383;SDS011;61466;52.166;5.004;2023-01-16T08:31:27;2.67;;;0.82;;
71383;SDS011;61466;52.166;5.004;2023-01-16T08:33:52;4.05;;;1.05;;
71383;SDS011;61466;52.166;5.004;2023-01-16T08:36:18;1.30;;;0.95;;
71383;SDS011;61466;52.166;5.004;2023-01-16T08:38:45;1.52;;;1.33;;
71383;SDS011;61466;52.166;5.004;2023-01-16T08:41:12;1.50;;;1.02;;
71383;SDS011;61466;52.166;5.004;2023-01-16T08:43:56;0.75;;;0.75;;
71383;SDS011;61466;52.166;5.004;2023-01-16T08:46:40;1.65;;;1.17;;
71383;SDS011;61466;52.166;5.004;2023-01-16T08:49:25;1.17;;;1.08;;
71383;SDS011;61466;52.166;5.004;2023-01-16T08:52:09;1.13;;;1.02;;
71383;SDS011;61466;52.166;5.004;2023-01-16T08:54:35;1.75;;;1.17;;
71383;SDS011;61466;52.166;5.004;2023-01-16T08:57:01;1.90;;;1.67;;
71383;SDS011;61466;52.166;5.004;2023-01-16T08:59:26;3.28;;;1.25;;
71383;SDS011;61466;52.166;5.004;2023-01-16T09:01:58;2.90;;;1.20;;
71383;SDS011;61466;52.166;5.004;2023-01-16T09:04:24;0.85;;;0.82;;
71383;SDS011;61466;52.166;5.004;2023-01-16T09:06:49;1.95;;;1.67;;
71383;SDS011;61466;52.166;5.004;2023-01-16T09:09:15;2.35;;;1.10;;
71383;SDS011;61466;52.166;5.004;2023-01-16T09:11:40;3.75;;;2.10;;
71383;SDS011;61466;52.166;5.004;2023-01-16T09:14:24;1.67;;;1.40;;
71383;SDS011;61466;52.166;5.004;2023-01-16T09:16:49;3.78;;;1.88;;
71383;SDS011;61466;52.166;5.004;2023-01-16T09:19:15;1.60;;;1.50;;
71383;SDS011;61466;52.166;5.004;2023-01-16T09:21:40;4.60;;;1.48;;
71383;SDS011;61466;52.166;5.004;2023-01-16T09:24:05;1.40;;;1.30;;
71383;SDS011;61466;52.166;5.004;2023-01-16T09:26:32;1.77;;;1.10;;
71383;SDS011;61466;52.166;5.004;2023-01-16T09:28:57;1.83;;;1.35;;
71383;SDS011;61466;52.166;5.004;2023-01-16T09:31:23;4.30;;;1.65;;
71383;SDS011;61466;52.166;5.004;2023-01-16T09:33:48;1.52;;;1.17;;
71383;SDS011;61466;52.166;5.004;2023-01-16T09:36:14;1.92;;;1.30;;
71383;SDS011;61466;52.166;5.004;2023-01-16T09:38:40;3.30;;;1.83;;
71383;SDS011;61466;52.166;5.004;2023-01-16T09:41:05;2.80;;;2.00;;
71383;SDS011;61466;52.166;5.004;2023-01-16T09:43:45;2.15;;;1.95;;
71383;SDS011;61466;52.166;5.004;2023-01-16T09:46:22;2.75;;;1.25;;
71383;SDS011;61466;52.166;5.004;2023-01-16T09:48:52;2.63;;;1.90;;
71383;SDS011;61466;52.166;5.004;2023-01-16T09:51:24;2.30;;;1.38;;
71383;SDS011;61466;52.166;5.004;2023-01-16T09:54:39;3.53;;;1.73;;
71383;SDS011;61466;52.166;5.004;2023-01-16T09:57:28;1.10;;;0.90;;
71383;SDS011;61466;52.166;5.004;2023-01-16T10:00:16;1.90;;;1.80;;
71383;SDS011;61466;52.166;5.004;2023-01-16T10:02:42;2.05;;;1.35;;
71383;SDS011;61466;52.166;5.004;2023-01-16T10:05:08;2.22;;;2.03;;
71383;SDS011;61466;52.166;5.004;2023-01-16T10:07:48;2.08;;;1.40;;
71383;SDS011;61466;52.166;5.004;2023-01-16T10:18:56;2.15;;;1.35;;
71383;SDS011;61466;52.166;5.004;2023-01-16T10:21:29;1.85;;;1.15;;
71383;SDS011;61466;52.166;5.004;2023-01-16T10:24:12;2.25;;;1.38;;
71383;SDS011;61466;52.166;5.004;2023-01-16T10:37:36;2.63;;;1.20;;
71383;SDS011;61466;52.166;5.004;2023-01-16T10:40:37;1.33;;;1.23;;
71383;SDS011;61466;52.166;5.004;2023-01-16T10:43:32;1.65;;;1.20;;
71383;SDS011;61466;52.166;5.004;2023-01-16T10:46:34;6.47;;;1.15;;
71383;SDS011;61466;52.166;5.004;2023-01-16T10:49:19;1.50;;;1.30;;
71383;SDS011;61466;52.166;5.004;2023-01-16T10:51:57;1.15;;;1.05;;
71383;SDS011;61466;52.166;5.004;2023-01-16T10:54:26;1.23;;;1.00;;
71383;SDS011;61466;52.166;5.004;2023-01-16T10:56:52;1.42;;;1.05;;
71383;SDS011;61466;52.166;5.004;2023-01-16T10:59:17;2.58;;;1.30;;
71383;SDS011;61466;52.166;5.004;2023-01-16T11:01:45;1.65;;;1.55;;
71383;SDS011;61466;52.166;5.004;2023-01-16T11:04:11;3.30;;;1.20;;
71383;SDS011;61466;52.166;5.004;2023-01-16T11:06:37;2.50;;;0.93;;
71383;SDS011;61466;52.166;5.004;2023-01-16T11:09:14;1.85;;;1.10;;
71383;SDS011;61466;52.166;5.004;2023-01-16T11:11:43;3.45;;;1.35;;
71383;SDS011;61466;52.166;5.004;2023-01-16T11:14:32;1.73;;;1.35;;
71383;SDS011;61466;52.166;5.004;2023-01-16T11:17:37;2.20;;;1.42;;
71383;SDS011;61466;52.166;5.004;2023-01-16T11:20:26;1.48;;;1.13;;
71383;SDS011;61466;52.166;5.004;2023-01-16T11:22:55;2.08;;;1.23;;
71383;SDS011;61466;52.166;5.004;2023-01-16T11:25:28;2.92;;;1.38;;
71383;SDS011;61466;52.166;5.004;2023-01-16T11:27:56;1.27;;;1.17;;
71383;SDS011;61466;52.166;5.004;2023-01-16T11:30:27;1.25;;;1.13;;
71383;SDS011;61466;52.166;5.004;2023-01-16T11:32:56;1.58;;;1.02;;
71383;SDS011;61466;52.166;5.004;2023-01-16T11:35:25;1.13;;;0.93;;
71383;SDS011;61466;52.166;5.004;2023-01-16T11:37:56;1.70;;;1.42;;
71383;SDS011;61466;52.166;5.004;2023-01-16T11:40:23;1.40;;;1.30;;
71383;SDS011;61466;52.166;5.004;2023-01-16T11:42:53;1.40;;;1.13;;
71383;SDS011;61466;52.166;5.004;2023-01-16T11:45:43;2.60;;;1.17;;
71383;SDS011;61466;52.166;5.004;2023-01-16T11:48:41;2.92;;;1.17;;
71383;SDS011;61466;52.166;5.004;2023-01-16T11:51:14;1.48;;;1.33;;
71383;SDS011;61466;52.166;5.004;2023-01-16T11:53:48;1.63;;;1.30;;
71383;SDS011;61466;52.166;5.004;2023-01-16T12:28:24;1.73;;;1.63;;
71383;SDS011;61466;52.166;5.004;2023-01-16T12:50:49;1.35;;;1.20;;
71383;SDS011;61466;52.166;5.004;2023-01-16T13:04:50;4.50;;;1.27;;
71383;SDS011;61466;52.166;5.004;2023-01-16T13:07:22;1.15;;;1.05;;
71383;SDS011;61466;52.166;5.004;2023-01-16T13:09:55;2.00;;;1.25;;
71383;SDS011;61466;52.166;5.004;2023-01-16T13:12:41;1.83;;;1.30;;
71383;SDS011;61466;52.166;5.004;2023-01-16T13:15:29;1.65;;;1.50;;
71383;SDS011;61466;52.166;5.004;2023-01-16T13:17:58;1.48;;;1.38;;
71383;SDS011;61466;52.166;5.004;2023-01-16T13:20:26;1.70;;;1.60;;
71383;SDS011;61466;52.166;5.004;2023-01-16T13:22:55;1.88;;;1.55;;
71383;SDS011;61466;52.166;5.004;2023-01-16T13:25:28;1.88;;;1.33;;
71383;SDS011;61466;52.166;5.004;2023-01-16T13:28:02;2.03;;;1.25;;
71383;SDS011;61466;52.166;5.004;2023-01-16T13:30:32;1.85;;;1.33;;
71383;SDS011;61466;52.166;5.004;2023-01-16T13:32:59;1.13;;;1.05;;
71383;SDS011;61466;52.166;5.004;2023-01-16T13:38:32;2.70;;;1.27;;
71383;SDS011;61466;52.166;5.004;2023-01-16T13:46:44;1.40;;;1.30;;
71383;SDS011;61466;52.166;5.004;2023-01-16T13:49:17;2.13;;;1.45;;
71383;SDS011;61466;52.166;5.004;2023-01-16T13:51:47;1.73;;;1.55;;
71383;SDS011;61466;52.166;5.004;2023-01-16T13:54:17;1.98;;;1.73;;
71383;SDS011;61466;52.166;5.004;2023-01-16T13:56:56;1.50;;;1.40;;
71383;SDS011;61466;52.166;5.004;2023-01-16T13:59:35;1.23;;;1.13;;
71383;SDS011;61466;52.166;5.004;2023-01-16T14:02:02;2.20;;;1.90;;
71383;SDS011;61466;52.166;5.004;2023-01-16T14:07:47;2.80;;;1.88;;
71383;SDS011;61466;52.166;5.004;2023-01-16T14:11:24;2.00;;;1.85;;
71383;SDS011;61466;52.166;5.004;2023-01-16T14:17:14;4.50;;;1.92;;
71383;SDS011;61466;52.166;5.004;2023-01-16T14:19:57;1.67;;;1.58;;
71383;SDS011;61466;52.166;5.004;2023-01-16T14:25:38;2.10;;;1.70;;
71383;SDS011;61466;52.166;5.004;2023-01-16T14:28:03;2.40;;;1.75;;
71383;SDS011;61466;52.166;5.004;2023-01-16T14:30:30;1.98;;;1.75;;
71383;SDS011;61466;52.166;5.004;2023-01-16T14:32:57;2.35;;;1.88;;
71383;SDS011;61466;52.166;5.004;2023-01-16T14:35:41;2.50;;;1.50;;
71383;SDS011;61466;52.166;5.004;2023-01-16T14:38:14;1.85;;;1.58;;
71383;SDS011;61466;52.166;5.004;2023-01-16T14:41:02;1.77;;;1.67;;
71383;SDS011;61466;52.166;5.004;2023-01-16T14:46:58;1.80;;;1.33;;
71383;SDS011;61466;52.166;5.004;2023-01-16T14:57:53;3.63;;;1.70;;
71383;SDS011;61466;52.166;5.004;2023-01-16T15:00:20;1.92;;;1.73;;
71383;SDS011;61466;52.166;5.004;2023-01-16T15:03:02;2.47;;;2.28;;
71383;SDS011;61466;52.166;5.004;2023-01-16T15:05:39;1.95;;;1.63;;
71383;SDS011;61466;52.166;5.004;2023-01-16T15:08:32;2.10;;;1.73;;
71383;SDS011;61466;52.166;5.004;2023-01-16T15:11:01;1.85;;;1.63;;
71383;SDS011;61466;52.166;5.004;2023-01-16T15:14:11;1.48;;;1.30;;
71383;SDS011;61466;52.166;5.004;2023-01-16T15:17:04;1.95;;;1.85;;
71383;SDS011;61466;52.166;5.004;2023-01-16T15:31:15;2.42;;;1.80;;
71383;SDS011;61466;52.166;5.004;2023-01-16T15:33:44;2.50;;;1.50;;
71383;SDS011;61466;52.166;5.004;2023-01-16T15:38:39;2.10;;;1.90;;
71383;SDS011;61466;52.166;5.004;2023-01-16T15:41:04;3.90;;;2.20;;
71383;SDS011;61466;52.166;5.004;2023-01-16T15:43:29;2.58;;;1.83;;
71383;SDS011;61466;52.166;5.004;2023-01-16T15:49:25;3.17;;;1.75;;
71383;SDS011;61466;52.166;5.004;2023-01-16T15:52:00;2.10;;;1.75;;
71383;SDS011;61466;52.166;5.004;2023-01-16T15:54:26;2.30;;;1.92;;
71383;SDS011;61466;52.166;5.004;2023-01-16T15:56:52;2.15;;;1.80;;
71383;SDS011;61466;52.166;5.004;2023-01-16T15:59:25;2.30;;;1.92;;
71383;SDS011;61466;52.166;5.004;2023-01-16T16:01:51;2.13;;;1.92;;
71383;SDS011;61466;52.166;5.004;2023-01-16T16:04:17;3.63;;;2.00;;
71383;SDS011;61466;52.166;5.004;2023-01-16T16:06:45;3.55;;;1.85;;
71383;SDS011;61466;52.166;5.004;2023-01-16T16:09:20;2.13;;;1.92;;
71383;SDS011;61466;52.166;5.004;2023-01-16T16:11:49;2.58;;;1.92;;
71383;SDS011;61466;52.166;5.004;2023-01-16T16:14:28;2.53;;;2.13;;
71383;SDS011;61466;52.166;5.004;2023-01-16T16:22:52;2.92;;;2.63;;
71383;SDS011;61466;52.166;5.004;2023-01-16T16:27:55;2.08;;;1.88;;
71383;SDS011;61466;52.166;5.004;2023-01-16T16:30:25;2.35;;;2.00;;
71383;SDS011;61466;52.166;5.004;2023-01-16T16:35:36;1.25;;;1.15;;
71383;SDS011;61466;52.166;5.004;2023-01-16T16:38:02;1.33;;;1.05;;
71383;SDS011;61466;52.166;5.004;2023-01-16T16:40:27;1.77;;;1.20;;
71383;SDS011;61466;52.166;5.004;2023-01-16T16:42:54;1.33;;;1.20;;
71383;SDS011;61466;52.166;5.004;2023-01-16T16:45:22;1.48;;;1.30;;
71383;SDS011;61466;52.166;5.004;2023-01-16T16:50:49;0.65;;;0.65;;
71383;SDS011;61466;52.166;5.004;2023-01-16T16:53:25;0.80;;;0.75;;
71383;SDS011;61466;52.166;5.004;2023-01-16T16:55:52;1.23;;;1.13;;
71383;SDS011;61466;52.166;5.004;2023-01-16T16:58:23;1.73;;;1.23;;
71383;SDS011;61466;52.166;5.004;2023-01-16T17:00:52;1.10;;;1.08;;
71383;SDS011;61466;52.166;5.004;2023-01-16T17:03:22;1.00;;;0.90;;
71383;SDS011;61466;52.166;5.004;2023-01-16T17:05:50;1.13;;;1.02;;
71383;SDS011;61466;52.166;5.004;2023-01-16T17:08:26;1.42;;;1.30;;
71383;SDS011;61466;52.166;5.004;2023-01-16T17:10:55;1.63;;;1.33;;
71383;SDS011;61466;52.166;5.004;2023-01-16T17:13:21;1.35;;;0.90;;
71383;SDS011;61466;52.166;5.004;2023-01-16T17:15:53;1.23;;;1.00;;
71383;SDS011;61466;52.166;5.004;2023-01-16T17:18:19;1.13;;;0.93;;
71383;SDS011;61466;52.166;5.004;2023-01-16T17:20:48;1.35;;;1.13;;
71383;SDS011;61466;52.166;5.004;2023-01-16T17:23:14;1.17;;;1.08;;
71383;SDS011;61466;52.166;5.004;2023-01-16T17:25:41;1.75;;;1.50;;
71383;SDS011;61466;52.166;5.004;2023-01-16T17:28:07;1.38;;;1.23;;
71383;SDS011;61466;52.166;5.004;2023-01-16T17:30:33;1.35;;;1.00;;
71383;SDS011;61466;52.166;5.004;2023-01-16T17:33:01;0.88;;;0.75;;
71383;SDS011;61466;52.166;5.004;2023-01-16T17:35:34;1.40;;;1.10;;
71383;SDS011;61466;52.166;5.004;2023-01-16T17:38:00;1.38;;;1.27;;
71383;SDS011;61466;52.166;5.004;2023-01-16T17:40:26;1.90;;;1.75;;
71383;SDS011;61466;52.166;5.004;2023-01-16T17:42:51;1.55;;;1.13;;
71383;SDS011;61466;52.166;5.004;2023-01-16T17:48:28;1.42;;;1.33;;
71383;SDS011;61466;52.166;5.004;2023-01-16T17:50:55;1.23;;;1.13;;
71383;SDS011;61466;52.166;5.004;2023-01-16T17:53:23;1.67;;;1.30;;
71383;SDS011;61466;52.166;5.004;2023-01-16T17:55:51;2.20;;;1.80;;
71383;SDS011;61466;52.166;5.004;2023-01-16T17:58:34;1.80;;;1.33;;
71383;SDS011;61466;52.166;5.004;2023-01-16T18:01:17;1.25;;;1.15;;
71383;SDS011;61466;52.166;5.004;2023-01-16T18:06:20;1.20;;;1.02;;
71383;SDS011;61466;52.166;5.004;2023-01-16T18:08:47;0.73;;;0.73;;
71383;SDS011;61466;52.166;5.004;2023-01-16T18:11:14;1.55;;;1.45;;
71383;SDS011;61466;52.166;5.004;2023-01-16T18:13:58;1.25;;;0.82;;
71383;SDS011;61466;52.166;5.004;2023-01-16T18:16:42;1.15;;;1.05;;